Koppie Airport

Jump to: basic info | weather | runways | comments

Related pages: nearby airports | nearby navaids | notams | map

Basic information (top)

Codes: 7IS5
Location: lon 42.121399, lat -88.378098, elev 890 ft / 271 m msl
Status: small_airport

Weather (top)

Current conditions for Dupage Airport 14nm (26km) SSE (rec'd 2015/01/30 11:52Z):

KDPA 301152Z AUTO 35010KT 10SM OVC035 M05/M12 A3046 RMK AO2 SLP323 60000 T10501122 11017 21056 53021

Airport forecast for Dupage Airport 14nm (26km) SSE (rec'd 2015/01/30 12:42Z):

TAF KDPA 301139Z 3012/3112 34005KT P6SM SCT040 
     FM301600 30007KT P6SM BKN120 
     FM302300 23005KT P6SM SCT120

Runways (top)

N/S: 2,300 x 100 ft (701 x 30 m) — grass — not lighted

Latest comments (top)

No comments yet for Koppie Airport

More... (top)

See also NOTAMs and nearby airports and navaids, or visit the Koppie Airport page at the main OurAirports website..